Bay Port, New York
Current Conditions -  °F | °C
As of 8:56 AM on Wednesday 28 Jan 2015 (Local Time) from KISP Reporting Station
Broken Clouds Broken Clouds  
Wind Chill:   Ceiling: 12000
Heat Index: 19°   Visibility: 10mi
Dew Point:   Wind: 20mph
Humidity: 57%   Direction: 340°NNW
Pressure: 29.98"   Gusts: NA
Location:  40.746°N, 73.0539°W
Report Text: KISP 281356Z 34017KT 10SM FEW050 BKN120 BKN250 M07/M14 A2998 RMK AO2 PK WND 34028/1309 SLP152 T10721144 $
Loading
Personal Weather Stations






























Interactive Weather Map New forecast layout! Learn more

10-Day Weather Forecast

Advertisements
Track Severe Weather on mobile